sim
Sign-in with your pilot id or email,
or register
Callsign
Passwort

Schedule Details

Flight Number: RYR2525 (1)
Departure: Gothenburg Landvetter Airport (ESGG) at 06:30
Arrival: Malaga Costa Del Sol Airport (LEMG) at 10:30
Route: Ryanair Passenger Schedule. Enter filed route here before submitting Pirep.

Weather Information
Getting current METAR information for ESGG 200320Z 14009KT 9999 SCT015 BKN033 05/04 Q1014
Getting current METAR information for LEMG 200300Z 30004KT 9999 FEW015 BKN035 17/13 Q1016 NOSIG

Schedule Frequency

Route Map